sensor_id;sensor_type;location;lat;lon;timestamp;pressure;altitude;pressure_sealevel;temperature;humidity
48794;BME280;34589;42.306;23.858;2024-02-21T14:02:04;95963.34;;;11.01;38.54
48794;BME280;34589;42.306;23.858;2024-02-21T14:03:36;95965.94;;;11.01;38.85
48794;BME280;34589;42.306;23.858;2024-02-21T14:05:10;95964.84;;;10.94;39.52
48794;BME280;34589;42.306;23.858;2024-02-21T14:06:42;95964.97;;;11.02;38.75
48794;BME280;34589;42.306;23.858;2024-02-21T14:08:15;95973.31;;;11.06;39.88
48794;BME280;34589;42.306;23.858;2024-02-21T14:09:48;95977.81;;;11.04;39.64
48794;BME280;34589;42.306;23.858;2024-02-21T14:11:20;95978.63;;;11.04;40.70
48794;BME280;34589;42.306;23.858;2024-02-21T14:12:53;95973.22;;;10.88;42.09
48794;BME280;34589;42.306;23.858;2024-02-21T14:14:26;95970.88;;;10.85;42.98
48794;BME280;34589;42.306;23.858;2024-02-21T14:15:58;95977.72;;;10.66;43.32
48794;BME280;34589;42.306;23.858;2024-02-21T14:17:30;95977.84;;;10.55;43.84
48794;BME280;34589;42.306;23.858;2024-02-21T14:19:03;95978.38;;;10.58;44.58
48794;BME280;34589;42.306;23.858;2024-02-21T14:20:37;95977.03;;;10.54;44.37
48794;BME280;34589;42.306;23.858;2024-02-21T14:22:08;95975.50;;;10.52;43.96
48794;BME280;34589;42.306;23.858;2024-02-21T14:23:43;95971.97;;;10.53;44.58
48794;BME280;34589;42.306;23.858;2024-02-21T14:25:16;95987.28;;;10.56;44.38
48794;BME280;34589;42.306;23.858;2024-02-21T14:26:49;95981.94;;;10.67;44.40
48794;BME280;34589;42.306;23.858;2024-02-21T14:28:21;95977.28;;;10.81;44.23
48794;BME280;34589;42.306;23.858;2024-02-21T14:29:54;95980.88;;;10.80;44.13
48794;BME280;34589;42.306;23.858;2024-02-21T14:31:26;95978.81;;;10.83;44.22
48794;BME280;34589;42.306;23.858;2024-02-21T14:32:58;95975.66;;;10.70;44.14
48794;BME280;34589;42.306;23.858;2024-02-21T14:34:30;95979.88;;;10.81;44.13
48794;BME280;34589;42.306;23.858;2024-02-21T14:36:02;95981.41;;;10.73;44.45
48794;BME280;34589;42.306;23.858;2024-02-21T14:37:34;95977.59;;;10.68;44.64
48794;BME280;34589;42.306;23.858;2024-02-21T14:39:06;95973.22;;;10.78;44.40
48794;BME280;34589;42.306;23.858;2024-02-21T14:40:38;95967.47;;;10.84;44.47
48794;BME280;34589;42.306;23.858;2024-02-21T14:42:10;95972.66;;;10.84;44.32
48794;BME280;34589;42.306;23.858;2024-02-21T14:43:42;95962.28;;;10.84;44.10
48794;BME280;34589;42.306;23.858;2024-02-21T14:45:15;95965.28;;;10.80;43.82
48794;BME280;34589;42.306;23.858;2024-02-21T14:46:47;95968.94;;;10.67;44.00
48794;BME280;34589;42.306;23.858;2024-02-21T14:48:19;95969.38;;;10.72;43.90
48794;BME280;34589;42.306;23.858;2024-02-21T14:49:54;95974.59;;;10.63;44.03
48794;BME280;34589;42.306;23.858;2024-02-21T14:51:26;95975.25;;;10.65;43.98
48794;BME280;34589;42.306;23.858;2024-02-21T14:52:59;95968.00;;;10.68;44.06
48794;BME280;34589;42.306;23.858;2024-02-21T14:54:31;95972.66;;;10.65;44.09
48794;BME280;34589;42.306;23.858;2024-02-21T14:56:03;95974.28;;;10.66;43.97
48794;BME280;34589;42.306;23.858;2024-02-21T14:57:35;95978.00;;;10.63;43.83
48794;BME280;34589;42.306;23.858;2024-02-21T14:59:09;95969.94;;;10.76;44.10
48794;BME280;34589;42.306;23.858;2024-02-21T15:00:51;95972.91;;;10.91;43.75
48794;BME280;34589;42.306;23.858;2024-02-21T15:02:24;95972.94;;;10.81;44.08
48794;BME280;34589;42.306;23.858;2024-02-21T15:03:57;95980.28;;;10.86;44.29
48794;BME280;34589;42.306;23.858;2024-02-21T15:05:30;95981.28;;;10.85;44.25
48794;BME280;34589;42.306;23.858;2024-02-21T15:07:02;95978.41;;;10.88;44.22
48794;BME280;34589;42.306;23.858;2024-02-21T15:08:34;95968.41;;;10.93;44.19
48794;BME280;34589;42.306;23.858;2024-02-21T15:10:07;95980.28;;;10.86;44.35
48794;BME280;34589;42.306;23.858;2024-02-21T15:11:39;95981.00;;;10.78;44.81
48794;BME280;34589;42.306;23.858;2024-02-21T15:13:12;95979.06;;;10.70;44.98
48794;BME280;34589;42.306;23.858;2024-02-21T15:14:44;95982.50;;;10.61;45.51
48794;BME280;34589;42.306;23.858;2024-02-21T15:16:17;95978.41;;;10.68;45.06
48794;BME280;34589;42.306;23.858;2024-02-21T15:17:50;95973.47;;;10.75;44.77
48794;BME280;34589;42.306;23.858;2024-02-21T15:19:22;95982.25;;;10.64;44.80
48794;BME280;34589;42.306;23.858;2024-02-21T15:20:55;95982.50;;;10.61;45.24
48794;BME280;34589;42.306;23.858;2024-02-21T15:22:27;95984.28;;;10.51;45.14
48794;BME280;34589;42.306;23.858;2024-02-21T15:24:00;95984.69;;;10.56;45.36
48794;BME280;34589;42.306;23.858;2024-02-21T15:25:33;95981.13;;;10.57;45.72
48794;BME280;34589;42.306;23.858;2024-02-21T15:27:06;95980.72;;;10.62;45.40
48794;BME280;34589;42.306;23.858;2024-02-21T15:28:39;95987.13;;;10.67;45.56
48794;BME280;34589;42.306;23.858;2024-02-21T15:30:11;95983.84;;;10.65;45.65
48794;BME280;34589;42.306;23.858;2024-02-21T15:31:44;95981.13;;;10.76;45.39
48794;BME280;34589;42.306;23.858;2024-02-21T15:33:19;95982.34;;;10.82;45.19
48794;BME280;34589;42.306;23.858;2024-02-21T15:34:52;95978.94;;;10.82;45.43
48794;BME280;34589;42.306;23.858;2024-02-21T15:36:25;95978.41;;;10.78;45.56
48794;BME280;34589;42.306;23.858;2024-02-21T15:37:57;95982.22;;;10.74;45.74
48794;BME280;34589;42.306;23.858;2024-02-21T15:39:29;95976.47;;;10.61;46.29
48794;BME280;34589;42.306;23.858;2024-02-21T15:41:01;95975.66;;;10.50;46.64
48794;BME280;34589;42.306;23.858;2024-02-21T15:42:35;95977.84;;;10.45;46.85
48794;BME280;34589;42.306;23.858;2024-02-21T15:44:08;95974.44;;;10.45;46.86
48794;BME280;34589;42.306;23.858;2024-02-21T15:45:42;95983.44;;;10.50;46.89
48794;BME280;34589;42.306;23.858;2024-02-21T15:47:15;95981.94;;;10.48;47.16
48794;BME280;34589;42.306;23.858;2024-02-21T15:48:49;95984.81;;;10.54;47.24
48794;BME280;34589;42.306;23.858;2024-02-21T15:50:27;95984.41;;;10.49;47.01
48794;BME280;34589;42.306;23.858;2024-02-21T15:52:02;95983.03;;;10.45;47.24
48794;BME280;34589;42.306;23.858;2024-02-21T15:53:37;95982.75;;;10.48;47.32
48794;BME280;34589;42.306;23.858;2024-02-21T15:55:10;95982.09;;;10.46;47.45
48794;BME280;34589;42.306;23.858;2024-02-21T15:56:44;95987.16;;;10.48;47.59
48794;BME280;34589;42.306;23.858;2024-02-21T15:58:16;95983.88;;;10.46;47.53
48794;BME280;34589;42.306;23.858;2024-02-21T15:59:51;95989.59;;;10.39;47.76
48794;BME280;34589;42.306;23.858;2024-02-21T16:01:26;95989.94;;;10.25;48.15
48794;BME280;34589;42.306;23.858;2024-02-21T16:02:58;95997.97;;;10.22;48.58
48794;BME280;34589;42.306;23.858;2024-02-21T16:04:30;95998.94;;;10.21;48.54
48794;BME280;34589;42.306;23.858;2024-02-21T16:06:03;96005.63;;;10.14;48.98
48794;BME280;34589;42.306;23.858;2024-02-21T16:07:36;96006.72;;;10.11;48.88
48794;BME280;34589;42.306;23.858;2024-02-21T16:09:10;96009.47;;;10.19;48.79
48794;BME280;34589;42.306;23.858;2024-02-21T16:10:42;95999.59;;;10.13;49.08
48794;BME280;34589;42.306;23.858;2024-02-21T16:12:17;96006.75;;;10.21;49.12
48794;BME280;34589;42.306;23.858;2024-02-21T16:13:50;96003.75;;;10.26;49.34
48794;BME280;34589;42.306;23.858;2024-02-21T16:15:24;96014.75;;;10.39;49.17
48794;BME280;34589;42.306;23.858;2024-02-21T16:16:56;96018.84;;;10.42;49.05
48794;BME280;34589;42.306;23.858;2024-02-21T16:18:28;96015.34;;;10.21;49.31
48794;BME280;34589;42.306;23.858;2024-02-21T16:20:01;96013.00;;;10.18;49.45
48794;BME280;34589;42.306;23.858;2024-02-21T16:21:41;96019.47;;;10.24;49.50
48794;BME280;34589;42.306;23.858;2024-02-21T16:23:14;96021.75;;;10.27;49.27
48794;BME280;34589;42.306;23.858;2024-02-21T16:24:47;96017.16;;;10.31;49.46
48794;BME280;34589;42.306;23.858;2024-02-21T16:26:24;96017.97;;;10.31;49.66
48794;BME280;34589;42.306;23.858;2024-02-21T16:27:56;96020.81;;;10.28;49.66
48794;BME280;34589;42.306;23.858;2024-02-21T16:29:29;96019.88;;;10.29;49.46
48794;BME280;34589;42.306;23.858;2024-02-21T16:31:01;96016.56;;;10.27;49.88
48794;BME280;34589;42.306;23.858;2024-02-21T16:32:35;96017.97;;;10.31;49.67
48794;BME280;34589;42.306;23.858;2024-02-21T16:34:10;96028.19;;;10.23;50.01
48794;BME280;34589;42.306;23.858;2024-02-21T16:35:42;96025.56;;;10.13;50.18
48794;BME280;34589;42.306;23.858;2024-02-21T16:37:15;96027.38;;;10.23;50.11
48794;BME280;34589;42.306;23.858;2024-02-21T16:38:47;96025.19;;;10.28;49.69
48794;BME280;34589;42.306;23.858;2024-02-21T16:40:19;96024.84;;;10.32;49.57
48794;BME280;34589;42.306;23.858;2024-02-21T16:41:51;96030.31;;;10.39;49.41
48794;BME280;34589;42.306;23.858;2024-02-21T16:43:33;96034.97;;;10.45;49.15
48794;BME280;34589;42.306;23.858;2024-02-21T16:45:05;96033.34;;;10.44;49.14
48794;BME280;34589;42.306;23.858;2024-02-21T16:46:37;96029.34;;;10.40;49.10
48794;BME280;34589;42.306;23.858;2024-02-21T16:48:09;96041.25;;;10.43;49.10
48794;BME280;34589;42.306;23.858;2024-02-21T16:49:42;96041.25;;;10.43;48.95
48794;BME280;34589;42.306;23.858;2024-02-21T16:51:14;96042.63;;;10.47;48.96
48794;BME280;34589;42.306;23.858;2024-02-21T16:52:47;96039.88;;;10.38;49.25
48794;BME280;34589;42.306;23.858;2024-02-21T16:54:23;96033.03;;;10.37;49.46
48794;BME280;34589;42.306;23.858;2024-02-21T16:55:58;96035.34;;;10.40;49.39
48794;BME280;34589;42.306;23.858;2024-02-21T16:57:38;96034.94;;;10.35;49.58
48794;BME280;34589;42.306;23.858;2024-02-21T16:59:11;96037.06;;;10.30;49.33
48794;BME280;34589;42.306;23.858;2024-02-21T17:00:43;96039.63;;;10.20;49.72
48794;BME280;34589;42.306;23.858;2024-02-21T17:02:16;96039.38;;;10.14;49.71
48794;BME280;34589;42.306;23.858;2024-02-21T17:03:48;96031.44;;;10.06;49.80
48794;BME280;34589;42.306;23.858;2024-02-21T17:05:20;96047.69;;;10.08;49.82
48794;BME280;34589;42.306;23.858;2024-02-21T17:06:58;96038.94;;;10.09;50.13
48794;BME280;34589;42.306;23.858;2024-02-21T17:08:30;96044.69;;;10.12;49.94
48794;BME280;34589;42.306;23.858;2024-02-21T17:10:02;96044.28;;;10.07;49.86
48794;BME280;34589;42.306;23.858;2024-02-21T17:11:37;96046.16;;;10.05;49.93
48794;BME280;34589;42.306;23.858;2024-02-21T17:13:11;96043.00;;;10.01;50.17
48794;BME280;34589;42.306;23.858;2024-02-21T17:14:44;96051.16;;;9.97;50.09
48794;BME280;34589;42.306;23.858;2024-02-21T17:16:19;96053.25;;;10.03;50.05
48794;BME280;34589;42.306;23.858;2024-02-21T17:17:52;96058.03;;;9.98;50.17
48794;BME280;34589;42.306;23.858;2024-02-21T17:19:26;96053.78;;;9.97;50.41
48794;BME280;34589;42.306;23.858;2024-02-21T17:20:58;96057.72;;;9.91;50.26
48794;BME280;34589;42.306;23.858;2024-02-21T17:22:31;96058.47;;;9.82;50.52
48794;BME280;34589;42.306;23.858;2024-02-21T17:24:05;96062.84;;;9.81;50.73
48794;BME280;34589;42.306;23.858;2024-02-21T17:25:38;96062.59;;;9.84;50.77
48794;BME280;34589;42.306;23.858;2024-02-21T17:27:10;96067.47;;;9.78;50.64
48794;BME280;34589;42.306;23.858;2024-02-21T17:28:43;96065.56;;;9.80;50.75
48794;BME280;34589;42.306;23.858;2024-02-21T17:30:16;96064.13;;;9.87;50.75
48794;BME280;34589;42.306;23.858;2024-02-21T17:31:49;96069.81;;;9.81;50.78
48794;BME280;34589;42.306;23.858;2024-02-21T17:33:21;96074.97;;;9.71;50.75
48794;BME280;34589;42.306;23.858;2024-02-21T17:34:53;96068.00;;;9.72;50.95
48794;BME280;34589;42.306;23.858;2024-02-21T17:36:25;96067.13;;;9.61;51.08
48794;BME280;34589;42.306;23.858;2024-02-21T17:37:57;96071.88;;;9.56;51.01
48794;BME280;34589;42.306;23.858;2024-02-21T17:39:29;96071.50;;;9.61;51.25
48794;BME280;34589;42.306;23.858;2024-02-21T17:41:01;96077.25;;;9.64;51.15
48794;BME280;34589;42.306;23.858;2024-02-21T17:42:36;96078.38;;;9.72;50.93
48794;BME280;34589;42.306;23.858;2024-02-21T17:44:08;96082.34;;;9.76;50.74
48794;BME280;34589;42.306;23.858;2024-02-21T17:45:40;96070.06;;;9.78;50.66
48794;BME280;34589;42.306;23.858;2024-02-21T17:47:12;96074.75;;;9.84;50.75
48794;BME280;34589;42.306;23.858;2024-02-21T17:48:45;96079.81;;;9.86;50.80
48794;BME280;34589;42.306;23.858;2024-02-21T17:50:19;96082.13;;;9.89;50.84
48794;BME280;34589;42.306;23.858;2024-02-21T17:51:53;96082.97;;;9.89;50.72
48794;BME280;34589;42.306;23.858;2024-02-21T17:53:26;96082.28;;;9.87;50.70
48794;BME280;34589;42.306;23.858;2024-02-21T17:54:58;96085.31;;;9.71;51.06
48794;BME280;34589;42.306;23.858;2024-02-21T17:56:31;96084.94;;;9.76;51.17
48794;BME280;34589;42.306;23.858;2024-02-21T17:58:04;96085.66;;;9.57;51.01
48794;BME280;34589;42.306;23.858;2024-02-21T17:59:40;96082.69;;;9.61;50.99
48794;BME280;34589;42.306;23.858;2024-02-21T18:01:12;96080.94;;;9.62;50.80
48794;BME280;34589;42.306;23.858;2024-02-21T18:02:46;96087.59;;;9.64;50.67
48794;BME280;34589;42.306;23.858;2024-02-21T18:04:19;96085.84;;;9.65;50.84
48794;BME280;34589;42.306;23.858;2024-02-21T18:05:52;96084.22;;;9.64;50.54
48794;BME280;34589;42.306;23.858;2024-02-21T18:07:25;96082.38;;;9.55;50.59
48794;BME280;34589;42.306;23.858;2024-02-21T18:08:58;96085.28;;;9.61;50.60
48794;BME280;34589;42.306;23.858;2024-02-21T18:10:30;96082.44;;;9.64;50.68
48794;BME280;34589;42.306;23.858;2024-02-21T18:12:04;96078.47;;;9.60;50.87
48794;BME280;34589;42.306;23.858;2024-02-21T18:13:36;96086.09;;;9.62;50.61
48794;BME280;34589;42.306;23.858;2024-02-21T18:15:08;96087.84;;;9.61;50.73
48794;BME280;34589;42.306;23.858;2024-02-21T18:16:43;96086.94;;;9.62;50.55
48794;BME280;34589;42.306;23.858;2024-02-21T18:18:16;96088.41;;;9.55;50.63
48794;BME280;34589;42.306;23.858;2024-02-21T18:19:48;96080.53;;;9.45;51.00
48794;BME280;34589;42.306;23.858;2024-02-21T18:21:21;96093.19;;;9.39;51.22
48794;BME280;34589;42.306;23.858;2024-02-21T18:22:56;96098.88;;;9.33;51.33
48794;BME280;34589;42.306;23.858;2024-02-21T18:24:28;96094.38;;;9.35;51.14
48794;BME280;34589;42.306;23.858;2024-02-21T18:26:02;96093.44;;;9.36;51.10
48794;BME280;34589;42.306;23.858;2024-02-21T18:27:35;96091.28;;;9.41;50.96
48794;BME280;34589;42.306;23.858;2024-02-21T18:29:08;96095.91;;;9.37;51.02
48794;BME280;34589;42.306;23.858;2024-02-21T18:30:44;96092.75;;;9.34;51.25
48794;BME280;34589;42.306;23.858;2024-02-21T18:32:16;96091.47;;;9.28;51.43
48794;BME280;34589;42.306;23.858;2024-02-21T18:33:49;96093.47;;;9.24;51.50
48794;BME280;34589;42.306;23.858;2024-02-21T18:35:21;96097.59;;;9.27;51.26
48794;BME280;34589;42.306;23.858;2024-02-21T18:36:54;96104.88;;;9.33;51.38
48794;BME280;34589;42.306;23.858;2024-02-21T18:38:27;96098.19;;;9.31;51.45
48794;BME280;34589;42.306;23.858;2024-02-21T18:40:01;96101.13;;;9.26;51.49
48794;BME280;34589;42.306;23.858;2024-02-21T18:41:41;96099.22;;;9.28;51.36
48794;BME280;34589;42.306;23.858;2024-02-21T18:43:16;96100.56;;;9.22;51.32
48794;BME280;34589;42.306;23.858;2024-02-21T18:44:49;96102.66;;;9.28;51.45
48794;BME280;34589;42.306;23.858;2024-02-21T18:46:21;96105.06;;;9.20;51.95
48794;BME280;34589;42.306;23.858;2024-02-21T18:47:54;96096.06;;;9.24;51.47
48794;BME280;34589;42.306;23.858;2024-02-21T18:49:26;96104.28;;;9.29;51.45
48794;BME280;34589;42.306;23.858;2024-02-21T18:50:59;96102.78;;;9.27;51.48
48794;BME280;34589;42.306;23.858;2024-02-21T18:52:32;96090.06;;;9.24;51.83
48794;BME280;34589;42.306;23.858;2024-02-21T18:54:05;96101.81;;;9.28;51.68
48794;BME280;34589;42.306;23.858;2024-02-21T18:55:37;96103.03;;;9.24;51.46
48794;BME280;34589;42.306;23.858;2024-02-21T18:57:10;96101.06;;;9.16;51.71
48794;BME280;34589;42.306;23.858;2024-02-21T18:58:44;96106.28;;;9.05;52.06
48794;BME280;34589;42.306;23.858;2024-02-21T19:00:16;96104.66;;;9.04;52.07
48794;BME280;34589;42.306;23.858;2024-02-21T19:01:54;96101.16;;;8.94;52.02
48794;BME280;34589;42.306;23.858;2024-02-21T19:03:27;96100.41;;;9.03;51.88
48794;BME280;34589;42.306;23.858;2024-02-21T19:05:00;96092.13;;;9.09;51.97
48794;BME280;34589;42.306;23.858;2024-02-21T19:06:32;96101.09;;;9.05;52.07
48794;BME280;34589;42.306;23.858;2024-02-21T19:08:04;96090.38;;;9.09;51.82
48794;BME280;34589;42.306;23.858;2024-02-21T19:09:36;96095.72;;;8.97;52.07
48794;BME280;34589;42.306;23.858;2024-02-21T19:11:10;96101.50;;;8.89;52.23
48794;BME280;34589;42.306;23.858;2024-02-21T19:12:43;96094.19;;;8.94;52.25
48794;BME280;34589;42.306;23.858;2024-02-21T19:14:16;96098.19;;;8.98;52.36
48794;BME280;34589;42.306;23.858;2024-02-21T19:15:49;96095.22;;;9.03;52.24
48794;BME280;34589;42.306;23.858;2024-02-21T19:17:22;96095.91;;;9.05;52.35
48794;BME280;34589;42.306;23.858;2024-02-21T19:18:55;96096.44;;;8.99;52.29
48794;BME280;34589;42.306;23.858;2024-02-21T19:20:27;96107.84;;;8.96;52.33
48794;BME280;34589;42.306;23.858;2024-02-21T19:21:59;96106.53;;;9.02;52.27
48794;BME280;34589;42.306;23.858;2024-02-21T19:23:34;96104.78;;;9.02;52.51
48794;BME280;34589;42.306;23.858;2024-02-21T19:25:07;96102.66;;;8.96;52.55
48794;BME280;34589;42.306;23.858;2024-02-21T19:26:44;96114.09;;;8.94;52.63
48794;BME280;34589;42.306;23.858;2024-02-21T19:28:17;96105.31;;;8.85;53.01
48794;BME280;34589;42.306;23.858;2024-02-21T19:29:52;96117.78;;;8.80;53.14
48794;BME280;34589;42.306;23.858;2024-02-21T19:31:25;96110.59;;;8.83;53.01
48794;BME280;34589;42.306;23.858;2024-02-21T19:32:57;96115.00;;;8.71;53.53
48794;BME280;34589;42.306;23.858;2024-02-21T19:34:30;96123.34;;;8.75;53.43
48794;BME280;34589;42.306;23.858;2024-02-21T19:36:04;96121.09;;;8.70;53.68
48794;BME280;34589;42.306;23.858;2024-02-21T19:37:36;96129.44;;;8.74;53.54
48794;BME280;34589;42.306;23.858;2024-02-21T19:39:08;96121.09;;;8.70;53.84
48794;BME280;34589;42.306;23.858;2024-02-21T19:40:43;96123.13;;;8.67;53.93
48794;BME280;34589;42.306;23.858;2024-02-21T19:42:15;96121.09;;;8.70;53.99
48794;BME280;34589;42.306;23.858;2024-02-21T19:43:47;96128.50;;;8.75;54.08
48794;BME280;34589;42.306;23.858;2024-02-21T19:45:20;96126.97;;;8.72;54.18
48794;BME280;34589;42.306;23.858;2024-02-21T19:46:52;96131.09;;;8.75;54.16
48794;BME280;34589;42.306;23.858;2024-02-21T19:48:25;96119.84;;;8.65;54.39
48794;BME280;34589;42.306;23.858;2024-02-21T19:49:57;96125.94;;;8.64;54.62
48794;BME280;34589;42.306;23.858;2024-02-21T19:51:30;96128.53;;;8.64;54.47
48794;BME280;34589;42.306;23.858;2024-02-21T19:53:02;96124.75;;;8.68;54.60
48794;BME280;34589;42.306;23.858;2024-02-21T19:54:35;96116.53;;;8.63;54.86
48794;BME280;34589;42.306;23.858;2024-02-21T19:56:07;96123.13;;;8.67;54.88
48794;BME280;34589;42.306;23.858;2024-02-21T19:57:43;96122.16;;;8.68;54.79
48794;BME280;34589;42.306;23.858;2024-02-21T19:59:18;96112.41;;;8.71;54.57
48794;BME280;34589;42.306;23.858;2024-02-21T20:00:50;96127.94;;;8.71;54.85
48794;BME280;34589;42.306;23.858;2024-02-21T20:02:23;96129.56;;;8.72;55.02
48794;BME280;34589;42.306;23.858;2024-02-21T20:03:57;96120.75;;;8.75;55.01
48794;BME280;34589;42.306;23.858;2024-02-21T20:05:29;96125.34;;;8.71;54.87
48794;BME280;34589;42.306;23.858;2024-02-21T20:07:02;96128.88;;;8.70;55.11
48794;BME280;34589;42.306;23.858;2024-02-21T20:08:36;96135.19;;;8.78;54.97
48794;BME280;34589;42.306;23.858;2024-02-21T20:10:08;96126.38;;;8.80;54.95
48794;BME280;34589;42.306;23.858;2024-02-21T20:11:42;96126.16;;;8.72;55.00
48794;BME280;34589;42.306;23.858;2024-02-21T20:13:15;96121.91;;;8.71;55.07
48794;BME280;34589;42.306;23.858;2024-02-21T20:14:48;96130.38;;;8.73;55.13
48794;BME280;34589;42.306;23.858;2024-02-21T20:16:22;96132.31;;;8.60;55.32
48794;BME280;34589;42.306;23.858;2024-02-21T20:17:56;96130.03;;;8.66;55.36
48794;BME280;34589;42.306;23.858;2024-02-21T20:19:29;96128.19;;;8.57;55.71
48794;BME280;34589;42.306;23.858;2024-02-21T20:21:03;96129.72;;;8.48;55.86
48794;BME280;34589;42.306;23.858;2024-02-21T20:22:36;96130.44;;;8.62;55.67
48794;BME280;34589;42.306;23.858;2024-02-21T20:24:09;96126.84;;;8.74;55.35
48794;BME280;34589;42.306;23.858;2024-02-21T20:25:53;96122.72;;;8.83;55.30
48794;BME280;34589;42.306;23.858;2024-02-21T20:27:27;96123.22;;;8.77;55.20
48794;BME280;34589;42.306;23.858;2024-02-21T20:29:00;96122.63;;;8.73;55.44
48794;BME280;34589;42.306;23.858;2024-02-21T20:30:33;96126.25;;;8.82;55.38
48794;BME280;34589;42.306;23.858;2024-02-21T20:32:06;96116.16;;;8.79;55.33
48794;BME280;34589;42.306;23.858;2024-02-21T20:33:38;96124.72;;;8.79;55.41
48794;BME280;34589;42.306;23.858;2024-02-21T20:35:10;96123.22;;;8.77;55.27
48794;BME280;34589;42.306;23.858;2024-02-21T20:36:42;96131.59;;;8.69;55.48
48794;BME280;34589;42.306;23.858;2024-02-21T20:38:15;96126.66;;;8.54;55.98
48794;BME280;34589;42.306;23.858;2024-02-21T20:39:48;96124.28;;;8.63;55.80
48794;BME280;34589;42.306;23.858;2024-02-21T20:41:20;96126.41;;;8.58;56.17
48794;BME280;34589;42.306;23.858;2024-02-21T20:42:53;96123.59;;;8.61;56.02
48794;BME280;34589;42.306;23.858;2024-02-21T20:44:26;96131.69;;;8.67;55.99
48794;BME280;34589;42.306;23.858;2024-02-21T20:45:58;96133.47;;;8.67;55.90
48794;BME280;34589;42.306;23.858;2024-02-21T20:47:30;96137.00;;;8.66;55.97
48794;BME280;34589;42.306;23.858;2024-02-21T20:49:05;96132.63;;;8.66;55.79
48794;BME280;34589;42.306;23.858;2024-02-21T20:50:37;96130.38;;;8.73;55.84
48794;BME280;34589;42.306;23.858;2024-02-21T20:52:10;96136.97;;;8.77;55.70
48794;BME280;34589;42.306;23.858;2024-02-21T20:53:43;96131.34;;;8.72;55.90
48794;BME280;34589;42.306;23.858;2024-02-21T20:55:16;96130.88;;;8.78;55.79
48794;BME280;34589;42.306;23.858;2024-02-21T20:56:52;96125.31;;;8.83;55.72
48794;BME280;34589;42.306;23.858;2024-02-21T20:58:28;96123.78;;;8.80;55.69
48794;BME280;34589;42.306;23.858;2024-02-21T21:00:00;96120.13;;;8.83;55.82
48794;BME280;34589;42.306;23.858;2024-02-21T21:01:32;96123.56;;;8.83;55.87
48794;BME280;34589;42.306;23.858;2024-02-21T21:03:14;96125.31;;;8.83;55.96
48794;BME280;34589;42.306;23.858;2024-02-21T21:04:48;96124.50;;;8.82;55.71
48794;BME280;34589;42.306;23.858;2024-02-21T21:06:21;96123.56;;;8.83;55.73
48794;BME280;34589;42.306;23.858;2024-02-21T21:07:54;96127.66;;;8.86;55.92
48794;BME280;34589;42.306;23.858;2024-02-21T21:09:26;96123.28;;;8.86;56.38
48794;BME280;34589;42.306;23.858;2024-02-21T21:10:58;96125.88;;;8.86;56.28
48794;BME280;34589;42.306;23.858;2024-02-21T21:12:30;96124.50;;;8.82;56.51
48794;BME280;34589;42.306;23.858;2024-02-21T21:14:03;96132.72;;;8.76;56.50
48794;BME280;34589;42.306;23.858;2024-02-21T21:15:35;96128.41;;;8.77;56.72
48794;BME280;34589;42.306;23.858;2024-02-21T21:17:10;96129.44;;;8.74;56.83
48794;BME280;34589;42.306;23.858;2024-02-21T21:18:43;96131.72;;;8.56;57.33
48794;BME280;34589;42.306;23.858;2024-02-21T21:20:15;96126.75;;;8.64;57.80
48794;BME280;34589;42.306;23.858;2024-02-21T21:21:48;96136.06;;;8.44;58.77
48794;BME280;34589;42.306;23.858;2024-02-21T21:23:21;96128.31;;;8.56;58.54
48794;BME280;34589;42.306;23.858;2024-02-21T21:24:54;96130.53;;;8.60;58.43
48794;BME280;34589;42.306;23.858;2024-02-21T21:26:27;96133.00;;;8.28;59.52
48794;BME280;34589;42.306;23.858;2024-02-21T21:27:59;96132.19;;;8.39;58.87
48794;BME280;34589;42.306;23.858;2024-02-21T21:29:31;96135.84;;;8.47;59.32
48794;BME280;34589;42.306;23.858;2024-02-21T21:31:05;96139.50;;;8.45;59.47
48794;BME280;34589;42.306;23.858;2024-02-21T21:32:37;96139.41;;;8.46;59.08
48794;BME280;34589;42.306;23.858;2024-02-21T21:34:10;96140.75;;;8.39;59.27
48794;BME280;34589;42.306;23.858;2024-02-21T21:35:43;96139.59;;;8.32;60.36
48794;BME280;34589;42.306;23.858;2024-02-21T21:37:16;96142.19;;;8.32;60.73
48794;BME280;34589;42.306;23.858;2024-02-21T21:38:47;96150.19;;;8.29;61.27
48794;BME280;34589;42.306;23.858;2024-02-21T21:40:21;96152.19;;;8.25;61.48
48794;BME280;34589;42.306;23.858;2024-02-21T21:41:54;96152.28;;;8.24;61.70
48794;BME280;34589;42.306;23.858;2024-02-21T21:43:25;96150.28;;;8.16;61.91
48794;BME280;34589;42.306;23.858;2024-02-21T21:44:57;96150.28;;;7.93;62.82
48794;BME280;34589;42.306;23.858;2024-02-21T21:46:29;96152.63;;;7.96;62.82
48794;BME280;34589;42.306;23.858;2024-02-21T21:48:02;96149.44;;;8.04;62.75
48794;BME280;34589;42.306;23.858;2024-02-21T21:49:34;96152.28;;;8.01;62.99
48794;BME280;34589;42.306;23.858;2024-02-21T21:51:08;96152.50;;;7.87;63.26
48794;BME280;34589;42.306;23.858;2024-02-21T21:52:40;96150.84;;;7.86;63.62
48794;BME280;34589;42.306;23.858;2024-02-21T21:54:12;96147.56;;;7.95;63.12
48794;BME280;34589;42.306;23.858;2024-02-21T21:55:43;96160.03;;;7.90;63.51
48794;BME280;34589;42.306;23.858;2024-02-21T21:57:17;96158.34;;;7.77;63.86
48794;BME280;34589;42.306;23.858;2024-02-21T21:58:50;96151.91;;;7.83;64.03
48794;BME280;34589;42.306;23.858;2024-02-21T22:00:23;96160.09;;;7.77;64.47
48794;BME280;34589;42.306;23.858;2024-02-21T22:01:56;96161.44;;;7.83;64.15
48794;BME280;34589;42.306;23.858;2024-02-21T22:03:30;96161.63;;;7.68;64.79
48794;BME280;34589;42.306;23.858;2024-02-21T22:05:02;96156.72;;;7.76;64.46
48794;BME280;34589;42.306;23.858;2024-02-21T22:06:35;96159.75;;;7.70;64.84
48794;BME280;34589;42.306;23.858;2024-02-21T22:08:08;96160.81;;;7.68;64.55
48794;BME280;34589;42.306;23.858;2024-02-21T22:09:40;96162.31;;;7.70;64.53
48794;BME280;34589;42.306;23.858;2024-02-21T22:11:13;96173.53;;;7.82;64.32